Time;durP1;ratioP1;P1;durP2;ratioP2;P2;SDS_P1;SDS_P2;PMS_P1;PMS_P2;Temp;Humidity;BMP_temperature;BMP_pressure;BME280_temperature;BME280_humidity;BME280_pressure;Samples;Min_cycle;Max_cycle;Signal;HPM_P1;HPM_P2
2021/03/12 00:00:23;;;;;;;8.63;2.78;;;;;;;;;;5019053;28;20049;-79
2021/03/12 00:02:49;;;;;;;7.20;2.17;;;;;;;;;;5019253;28;20426;-79
2021/03/12 00:05:16;;;;;;;6.00;2.85;;;;;;;;;;5014271;28;20039;-79
2021/03/12 00:07:42;;;;;;;6.93;2.53;;;;;;;;;;5022891;28;20030;-79
2021/03/12 00:10:13;;;;;;;6.45;2.72;;;;;;;;;;5029656;28;20469;-79
2021/03/12 00:12:39;;;;;;;5.63;2.42;;;;;;;;;;5025879;28;20026;-79
2021/03/12 00:15:07;;;;;;;5.72;2.22;;;;;;;;;;5020937;28;20026;-79
2021/03/12 00:17:33;;;;;;;6.65;2.33;;;;;;;;;;5006560;28;20097;-79
2021/03/12 00:19:59;;;;;;;8.02;2.63;;;;;;;;;;5032684;28;20026;-79
2021/03/12 00:22:25;;;;;;;8.90;2.58;;;;;;;;;;5039200;28;20026;-79
2021/03/12 00:24:51;;;;;;;5.95;2.10;;;;;;;;;;5025231;28;20022;-79
2021/03/12 00:27:17;;;;;;;6.05;2.15;;;;;;;;;;5018968;28;20081;-79
2021/03/12 00:29:43;;;;;;;6.57;2.13;;;;;;;;;;5001343;28;20030;-79
2021/03/12 00:32:09;;;;;;;5.10;2.10;;;;;;;;;;5012233;28;20057;-79
2021/03/12 00:34:35;;;;;;;6.10;1.90;;;;;;;;;;5012380;28;20438;-79
2021/03/12 00:37:01;;;;;;;6.15;2.30;;;;;;;;;;5019015;28;20025;-79
2021/03/12 00:39:27;;;;;;;4.75;2.13;;;;;;;;;;5019089;28;20022;-79
2021/03/12 00:41:53;;;;;;;9.73;2.17;;;;;;;;;;5019170;28;20058;-79
2021/03/12 00:44:20;;;;;;;9.55;2.20;;;;;;;;;;5001494;28;20026;-79
2021/03/12 00:46:46;;;;;;;4.63;2.17;;;;;;;;;;5019229;28;20096;-79
2021/03/12 00:49:12;;;;;;;3.72;1.52;;;;;;;;;;5018873;28;20036;-79
2021/03/12 00:51:38;;;;;;;4.35;1.92;;;;;;;;;;5019261;28;20030;-79
2021/03/12 00:54:05;;;;;;;4.03;1.60;;;;;;;;;;4987717;28;20026;-79
2021/03/12 00:56:31;;;;;;;4.13;1.98;;;;;;;;;;4989327;28;20089;-79
2021/03/12 00:58:57;;;;;;;7.20;2.50;;;;;;;;;;5019143;28;20034;-79
2021/03/12 01:01:23;;;;;;;6.57;2.00;;;;;;;;;;5021253;28;20029;-79
2021/03/12 01:03:49;;;;;;;4.28;2.10;;;;;;;;;;5034571;28;20103;-79
2021/03/12 01:06:15;;;;;;;5.95;1.98;;;;;;;;;;5032053;28;20026;-79
2021/03/12 01:08:41;;;;;;;4.50;2.10;;;;;;;;;;5018137;28;20053;-79
2021/03/12 01:11:07;;;;;;;4.45;1.70;;;;;;;;;;5019265;28;20030;-79
2021/03/12 01:13:33;;;;;;;7.13;2.00;;;;;;;;;;5018136;28;20030;-79
2021/03/12 01:15:59;;;;;;;4.82;1.60;;;;;;;;;;5018120;28;20069;-79
2021/03/12 01:18:25;;;;;;;5.05;2.15;;;;;;;;;;5018715;28;20018;-79
2021/03/12 01:20:51;;;;;;;4.68;1.92;;;;;;;;;;5018941;28;20034;-79
2021/03/12 01:23:17;;;;;;;4.35;1.55;;;;;;;;;;5018804;28;20030;-79
2021/03/12 01:25:45;;;;;;;3.92;1.73;;;;;;;;;;5018953;28;20034;-79
2021/03/12 01:28:11;;;;;;;2.47;1.58;;;;;;;;;;5018887;28;20034;-79
2021/03/12 01:30:39;;;;;;;3.60;1.80;;;;;;;;;;5010873;28;20034;-79
2021/03/12 01:33:05;;;;;;;9.40;2.28;;;;;;;;;;4999080;28;20034;-79
2021/03/12 01:35:31;;;;;;;5.03;1.60;;;;;;;;;;4998940;28;20027;-79
2021/03/12 01:37:58;;;;;;;9.07;2.60;;;;;;;;;;5014822;28;20069;-79
2021/03/12 01:40:24;;;;;;;6.65;1.75;;;;;;;;;;5018405;28;20036;-79
2021/03/12 01:42:52;;;;;;;6.05;2.85;;;;;;;;;;5014755;28;20490;-79
2021/03/12 01:45:20;;;;;;;7.43;2.58;;;;;;;;;;5015614;28;20480;-79
2021/03/12 01:47:46;;;;;;;12.85;3.08;;;;;;;;;;5015784;28;20022;-79
2021/03/12 01:50:12;;;;;;;6.90;3.55;;;;;;;;;;5016842;28;20116;-79
2021/03/12 01:52:38;;;;;;;5.63;2.50;;;;;;;;;;5018776;28;20548;-79
2021/03/12 01:55:10;;;;;;;10.98;2.97;;;;;;;;;;5020250;28;20038;-79
2021/03/12 01:57:36;;;;;;;7.00;2.50;;;;;;;;;;5018310;28;20037;-79
2021/03/12 02:00:03;;;;;;;5.97;3.03;;;;;;;;;;5018328;28;20034;-79
2021/03/12 02:02:29;;;;;;;5.50;2.70;;;;;;;;;;5026268;28;20026;-79
2021/03/12 02:04:57;;;;;;;6.80;2.67;;;;;;;;;;5018361;28;20058;-79
2021/03/12 02:07:23;;;;;;;9.93;2.80;;;;;;;;;;5018872;28;20025;-79
2021/03/12 02:09:49;;;;;;;5.60;3.00;;;;;;;;;;5018349;28;20022;-79
2021/03/12 02:12:20;;;;;;;4.65;2.70;;;;;;;;;;5018601;28;20026;-79
2021/03/12 02:14:54;;;;;;;5.63;2.60;;;;;;;;;;4988258;28;20078;-79
2021/03/12 02:17:24;;;;;;;6.05;2.42;;;;;;;;;;5017827;28;20410;-79
2021/03/12 02:19:50;;;;;;;5.70;2.50;;;;;;;;;;5031969;28;20035;-79
2021/03/12 02:22:18;;;;;;;7.97;2.50;;;;;;;;;;5017351;28;20034;-79
2021/03/12 02:24:47;;;;;;;5.35;2.42;;;;;;;;;;5018937;28;20040;-79
2021/03/12 02:27:14;;;;;;;5.78;2.45;;;;;;;;;;5018411;28;20544;-79
2021/03/12 02:29:43;;;;;;;5.70;2.33;;;;;;;;;;5001359;28;20018;-79
2021/03/12 02:32:10;;;;;;;6.07;2.65;;;;;;;;;;5017889;28;20054;-79
2021/03/12 02:34:37;;;;;;;8.55;2.83;;;;;;;;;;5019039;28;20055;-78
2021/03/12 02:37:03;;;;;;;6.25;2.38;;;;;;;;;;5019016;28;20088;-79
2021/03/12 02:39:31;;;;;;;8.52;2.67;;;;;;;;;;5019702;28;20037;-79
2021/03/12 02:41:58;;;;;;;4.38;1.90;;;;;;;;;;5019409;28;20113;-79
2021/03/12 02:44:25;;;;;;;5.50;2.50;;;;;;;;;;5019223;28;20033;-79
2021/03/12 02:46:56;;;;;;;5.07;2.08;;;;;;;;;;5018747;28;20053;-79
2021/03/12 02:49:22;;;;;;;5.30;1.83;;;;;;;;;;5015571;28;20038;-79
2021/03/12 02:51:48;;;;;;;5.78;2.50;;;;;;;;;;5000807;28;20026;-79
2021/03/12 02:54:15;;;;;;;5.20;1.75;;;;;;;;;;5019723;28;20466;-79
2021/03/12 02:56:42;;;;;;;4.65;2.00;;;;;;;;;;5020061;28;20049;-79
2021/03/12 02:59:08;;;;;;;4.18;1.90;;;;;;;;;;5018640;28;20026;-79
2021/03/12 03:01:35;;;;;;;7.07;1.88;;;;;;;;;;5023486;28;20056;-79
2021/03/12 03:04:01;;;;;;;4.70;1.50;;;;;;;;;;5038789;28;20037;-78
2021/03/12 03:06:27;;;;;;;4.00;1.42;;;;;;;;;;5038361;28;20454;-78
2021/03/12 03:08:54;;;;;;;1.55;1.05;;;;;;;;;;5022298;28;20466;-79
2021/03/12 03:11:20;;;;;;;4.85;1.13;;;;;;;;;;5019401;28;20030;-79
2021/03/12 03:13:47;;;;;;;3.05;1.25;;;;;;;;;;5019314;28;20085;-79
2021/03/12 03:16:15;;;;;;;6.35;1.38;;;;;;;;;;5018516;28;20042;-79
2021/03/12 03:18:41;;;;;;;2.13;0.90;;;;;;;;;;5032076;28;20061;-79
2021/03/12 03:21:08;;;;;;;3.40;1.10;;;;;;;;;;5018249;28;20482;-78
2021/03/12 03:23:42;;;;;;;5.90;1.67;;;;;;;;;;5028222;28;20076;-78
2021/03/12 03:26:08;;;;;;;3.92;1.10;;;;;;;;;;5019234;28;20057;-79
2021/03/12 03:28:34;;;;;;;3.78;1.10;;;;;;;;;;5018519;28;20022;-79
2021/03/12 03:31:06;;;;;;;3.78;1.00;;;;;;;;;;5018581;28;20033;-79
2021/03/12 03:33:33;;;;;;;2.22;1.00;;;;;;;;;;5009715;28;20042;-79
2021/03/12 03:35:59;;;;;;;3.25;1.05;;;;;;;;;;5024110;28;20026;-79
2021/03/12 03:38:25;;;;;;;3.13;1.17;;;;;;;;;;5027729;28;20036;-79
2021/03/12 03:40:51;;;;;;;7.93;1.52;;;;;;;;;;5023333;28;20077;-79
2021/03/12 03:43:22;;;;;;;3.83;1.20;;;;;;;;;;5000166;28;20029;-78
2021/03/12 03:45:48;;;;;;;2.95;1.38;;;;;;;;;;5016139;28;20157;-79
2021/03/12 03:48:14;;;;;;;2.22;1.00;;;;;;;;;;5017505;28;20038;-78
2021/03/12 03:50:41;;;;;;;7.32;1.85;;;;;;;;;;5021035;28;20050;-78
2021/03/12 03:53:07;;;;;;;5.28;1.10;;;;;;;;;;5022411;28;20026;-79
2021/03/12 03:55:34;;;;;;;9.15;1.33;;;;;;;;;;5022412;28;20054;-79
2021/03/12 03:58:01;;;;;;;3.47;1.23;;;;;;;;;;5022736;28;20096;-79
2021/03/12 04:00:27;;;;;;;3.60;1.17;;;;;;;;;;5023037;28;20114;-79
2021/03/12 04:02:55;;;;;;;3.42;1.38;;;;;;;;;;5014524;28;20534;-78
2021/03/12 04:05:21;;;;;;;5.57;1.10;;;;;;;;;;5017300;28;20030;-79
2021/03/12 04:07:47;;;;;;;5.40;1.50;;;;;;;;;;5022547;28;20030;-79
2021/03/12 04:10:14;;;;;;;3.70;1.70;;;;;;;;;;5004361;28;20029;-79
2021/03/12 04:12:40;;;;;;;8.82;1.60;;;;;;;;;;5021911;28;20100;-79
2021/03/12 04:15:07;;;;;;;2.78;1.30;;;;;;;;;;5021625;28;20026;-79
2021/03/12 04:17:33;;;;;;;3.45;1.20;;;;;;;;;;5021793;28;20025;-79
2021/03/12 04:19:59;;;;;;;2.42;1.20;;;;;;;;;;5022202;28;20553;-79
2021/03/12 04:22:26;;;;;;;4.95;1.70;;;;;;;;;;5022190;28;20034;-79
2021/03/12 04:24:52;;;;;;;5.82;1.98;;;;;;;;;;5014784;28;20049;-78
2021/03/12 04:27:18;;;;;;;4.22;1.50;;;;;;;;;;5021521;28;20033;-79
2021/03/12 04:29:45;;;;;;;4.90;1.50;;;;;;;;;;5021803;28;20022;-78
2021/03/12 04:32:11;;;;;;;5.93;1.40;;;;;;;;;;5021269;28;20053;-79
2021/03/12 04:34:37;;;;;;;8.93;1.80;;;;;;;;;;5021386;28;20058;-79
2021/03/12 04:37:03;;;;;;;3.55;1.35;;;;;;;;;;5021478;28;20072;-78
2021/03/12 04:39:30;;;;;;;12.48;1.60;;;;;;;;;;5019258;28;20061;-79
2021/03/12 04:41:56;;;;;;;7.85;1.40;;;;;;;;;;5039653;28;20037;-79
2021/03/12 04:44:22;;;;;;;6.07;1.35;;;;;;;;;;5025182;28;20036;-79
2021/03/12 04:46:49;;;;;;;3.60;1.38;;;;;;;;;;5020181;28;20026;-79
2021/03/12 04:49:15;;;;;;;7.43;1.60;;;;;;;;;;5021460;28;20062;-79
2021/03/12 04:51:47;;;;;;;5.25;1.60;;;;;;;;;;5022937;28;20029;-79
2021/03/12 04:54:17;;;;;;;4.45;1.63;;;;;;;;;;5019649;28;20132;-79
2021/03/12 04:56:43;;;;;;;3.03;1.63;;;;;;;;;;4999388;28;20105;-79
2021/03/12 04:59:10;;;;;;;5.63;1.98;;;;;;;;;;5022446;28;20033;-79
2021/03/12 05:01:37;;;;;;;4.63;1.90;;;;;;;;;;5022782;28;20378;-78
2021/03/12 05:04:04;;;;;;;4.93;2.15;;;;;;;;;;5019881;28;20040;-79
2021/03/12 05:06:31;;;;;;;5.43;2.42;;;;;;;;;;4995405;28;20036;-79
2021/03/12 05:08:57;;;;;;;7.10;2.50;;;;;;;;;;5022955;28;20026;-79
2021/03/12 05:11:23;;;;;;;7.15;2.40;;;;;;;;;;5023712;28;20549;-78
2021/03/12 05:13:50;;;;;;;7.65;2.30;;;;;;;;;;5025803;28;20057;-79
2021/03/12 05:16:16;;;;;;;6.68;2.58;;;;;;;;;;5023568;28;20081;-78
2021/03/12 05:18:42;;;;;;;5.93;2.63;;;;;;;;;;5037544;28;20036;-79
2021/03/12 05:21:08;;;;;;;4.70;2.65;;;;;;;;;;5023574;28;20138;-78
2021/03/12 05:23:34;;;;;;;7.03;2.10;;;;;;;;;;5023076;28;20041;-78
2021/03/12 05:26:00;;;;;;;4.15;2.55;;;;;;;;;;5023443;28;20042;-79
2021/03/12 05:28:26;;;;;;;4.55;2.80;;;;;;;;;;5023880;28;20030;-79
2021/03/12 05:30:52;;;;;;;8.90;3.42;;;;;;;;;;5024007;28;20025;-78
2021/03/12 05:33:19;;;;;;;4.60;2.63;;;;;;;;;;5023415;28;20383;-78
2021/03/12 05:35:45;;;;;;;5.05;2.75;;;;;;;;;;5022994;28;20069;-78
2021/03/12 05:38:11;;;;;;;5.28;2.65;;;;;;;;;;5022713;28;20477;-79
2021/03/12 05:40:37;;;;;;;4.07;2.20;;;;;;;;;;5024338;28;20041;-79
2021/03/12 05:43:03;;;;;;;9.20;2.63;;;;;;;;;;5019670;28;20026;-79
2021/03/12 05:45:29;;;;;;;7.20;2.80;;;;;;;;;;5015307;28;20459;-79
2021/03/12 05:47:56;;;;;;;7.20;2.95;;;;;;;;;;5015651;28;20065;-79
2021/03/12 05:50:22;;;;;;;5.22;2.70;;;;;;;;;;5022635;28;20543;-81
2021/03/12 05:52:48;;;;;;;5.50;2.38;;;;;;;;;;5020312;28;20026;-82
2021/03/12 05:55:15;;;;;;;10.57;2.60;;;;;;;;;;5012286;28;20026;-84
2021/03/12 05:57:42;;;;;;;4.80;2.30;;;;;;;;;;5020351;28;20038;-84
2021/03/12 06:00:08;;;;;;;5.05;2.00;;;;;;;;;;5022247;28;20034;-84
2021/03/12 06:02:34;;;;;;;6.47;2.08;;;;;;;;;;5020911;28;20482;-84
2021/03/12 06:05:00;;;;;;;7.72;3.08;;;;;;;;;;5040574;28;20040;-84
2021/03/12 06:07:26;;;;;;;4.45;2.75;;;;;;;;;;5022089;28;20030;-85
2021/03/12 06:09:52;;;;;;;6.97;3.20;;;;;;;;;;5013747;28;20041;-84
2021/03/12 06:12:18;;;;;;;5.85;2.97;;;;;;;;;;5001201;28;20084;-83
2021/03/12 06:14:51;;;;;;;6.03;3.20;;;;;;;;;;5020059;28;20034;-84
2021/03/12 06:17:50;;;;;;;5.30;3.70;;;;;;;;;;5017837;28;20037;-84
2021/03/12 06:20:17;;;;;;;5.78;4.00;;;;;;;;;;4968187;28;20061;-84
2021/03/12 06:22:53;;;;;;;5.40;3.55;;;;;;;;;;5021166;28;20417;-84
2021/03/12 06:25:20;;;;;;;6.47;3.55;;;;;;;;;;5020938;28;20038;-84
2021/03/12 06:27:47;;;;;;;9.65;3.97;;;;;;;;;;5020837;28;20033;-83
2021/03/12 06:30:14;;;;;;;11.05;4.47;;;;;;;;;;5019876;28;20034;-84
2021/03/12 06:32:43;;;;;;;7.05;4.15;;;;;;;;;;5021991;28;20469;-84
2021/03/12 06:35:09;;;;;;;7.93;3.80;;;;;;;;;;5020896;28;20057;-84
2021/03/12 06:37:35;;;;;;;7.00;4.00;;;;;;;;;;5020758;28;20149;-83
2021/03/12 06:40:18;;;;;;;6.45;4.65;;;;;;;;;;5022549;28;20034;-83
2021/03/12 06:43:02;;;;;;;11.43;4.63;;;;;;;;;;5023846;28;20030;-84
2021/03/12 06:45:29;;;;;;;11.40;4.50;;;;;;;;;;5021635;28;20037;-83
2021/03/12 06:48:16;;;;;;;9.38;4.45;;;;;;;;;;5022149;28;20033;-83
2021/03/12 06:50:46;;;;;;;7.15;3.92;;;;;;;;;;5003398;28;20048;-83
2021/03/12 06:53:19;;;;;;;9.63;4.78;;;;;;;;;;5015103;28;20041;-83
2021/03/12 06:55:45;;;;;;;6.93;4.47;;;;;;;;;;5023827;28;20101;-83
2021/03/12 06:58:11;;;;;;;7.03;4.22;;;;;;;;;;5027422;28;20031;-83
2021/03/12 07:00:37;;;;;;;6.50;4.47;;;;;;;;;;5015702;28;20030;-82
2021/03/12 07:03:24;;;;;;;8.07;4.50;;;;;;;;;;5022129;28;20028;-82
2021/03/12 07:05:57;;;;;;;8.20;4.60;;;;;;;;;;5005732;28;20099;-83
2021/03/12 07:08:29;;;;;;;6.82;4.47;;;;;;;;;;5016264;28;20123;-83
2021/03/12 07:10:55;;;;;;;7.25;4.28;;;;;;;;;;5036014;28;20038;-83
2021/03/12 07:13:22;;;;;;;6.63;4.30;;;;;;;;;;5024731;28;20065;-83
2021/03/12 07:15:51;;;;;;;10.60;4.82;;;;;;;;;;5024158;28;20065;-83
2021/03/12 07:18:17;;;;;;;8.70;4.40;;;;;;;;;;5018698;28;20473;-83
2021/03/12 07:20:43;;;;;;;9.45;4.60;;;;;;;;;;5000052;28;20026;-83
2021/03/12 07:23:10;;;;;;;7.03;4.18;;;;;;;;;;5006258;28;20098;-83
2021/03/12 07:25:36;;;;;;;8.02;4.55;;;;;;;;;;5018780;28;20041;-83
2021/03/12 07:28:02;;;;;;;10.27;4.93;;;;;;;;;;5023497;28;20169;-84
2021/03/12 07:30:29;;;;;;;8.63;4.50;;;;;;;;;;5014294;28;20377;-83
2021/03/12 07:32:58;;;;;;;4.82;4.03;;;;;;;;;;5014373;28;20029;-83
2021/03/12 07:35:26;;;;;;;9.70;4.07;;;;;;;;;;4996879;28;20030;-83
2021/03/12 07:37:53;;;;;;;9.95;4.38;;;;;;;;;;5014353;28;20036;-83
2021/03/12 07:40:20;;;;;;;8.68;4.72;;;;;;;;;;5003856;28;20030;-84
2021/03/12 07:42:46;;;;;;;7.03;3.50;;;;;;;;;;5014847;28;20026;-84
2021/03/12 07:45:13;;;;;;;11.23;3.95;;;;;;;;;;5014807;28;20037;-84
2021/03/12 07:47:39;;;;;;;6.72;3.85;;;;;;;;;;5001705;28;20026;-84
2021/03/12 07:50:23;;;;;;;7.05;4.03;;;;;;;;;;5014457;28;20114;-84
2021/03/12 07:52:49;;;;;;;;;;;;;;;;;;5015575;28;20050;-84
2021/03/12 07:55:35;;;;;;;6.22;3.75;;;;;;;;;;5029020;28;20422;-84
2021/03/12 07:58:02;;;;;;;6.93;3.63;;;;;;;;;;5000845;28;20030;-84
2021/03/12 08:00:28;;;;;;;7.25;3.60;;;;;;;;;;5012679;28;20116;-85
2021/03/12 08:02:56;;;;;;;8.50;3.65;;;;;;;;;;5013035;28;20049;-85
2021/03/12 08:05:42;;;;;;;10.45;3.80;;;;;;;;;;5014059;28;20041;-85
2021/03/12 08:08:26;;;;;;;7.55;3.75;;;;;;;;;;5020875;28;20160;-85
2021/03/12 08:11:15;;;;;;;6.38;3.63;;;;;;;;;;5014865;28;20434;-85
2021/03/12 08:13:42;;;;;;;6.07;4.00;;;;;;;;;;5007070;28;20438;-85
2021/03/12 08:16:08;;;;;;;6.15;4.20;;;;;;;;;;5010947;28;20108;-84
2021/03/12 08:18:34;;;;;;;6.13;4.00;;;;;;;;;;5013233;28;20045;-84
2021/03/12 08:21:20;;;;;;;9.82;4.28;;;;;;;;;;5016415;28;20373;-83
2021/03/12 08:23:46;;;;;;;6.82;4.15;;;;;;;;;;5009738;28;20026;-84
2021/03/12 08:26:12;;;;;;;7.63;4.00;;;;;;;;;;5008086;28;20030;-84
2021/03/12 08:28:38;;;;;;;9.25;3.95;;;;;;;;;;5019476;28;20021;-84
2021/03/12 08:31:04;;;;;;;9.75;4.45;;;;;;;;;;5011087;28;20057;-83
2021/03/12 08:33:32;;;;;;;7.90;4.40;;;;;;;;;;5021152;28;20477;-84
2021/03/12 08:35:58;;;;;;;9.50;4.50;;;;;;;;;;5012890;28;20033;-84
2021/03/12 08:38:25;;;;;;;10.30;4.15;;;;;;;;;;5013541;28;20422;-83
2021/03/12 08:41:00;;;;;;;9.80;4.07;;;;;;;;;;5019778;28;20085;-84
2021/03/12 08:43:27;;;;;;;6.03;3.70;;;;;;;;;;5012288;28;20066;-85
2021/03/12 08:46:04;;;;;;;7.55;4.53;;;;;;;;;;5004415;28;20920;-84
2021/03/12 08:48:31;;;;;;;7.03;4.07;;;;;;;;;;5016133;28;20060;-83
2021/03/12 08:51:08;;;;;;;7.60;3.85;;;;;;;;;;5012266;28;20069;-84
2021/03/12 08:53:54;;;;;;;7.90;4.47;;;;;;;;;;5017065;28;20026;-83
2021/03/12 08:56:22;;;;;;;6.05;3.92;;;;;;;;;;5005509;28;20027;-83
2021/03/12 08:58:48;;;;;;;6.20;3.90;;;;;;;;;;5017234;28;20025;-83
2021/03/12 09:01:15;;;;;;;7.43;4.30;;;;;;;;;;5017265;28;20041;-83
2021/03/12 09:03:47;;;;;;;9.70;4.55;;;;;;;;;;5008457;28;20033;-83
2021/03/12 09:06:15;;;;;;;11.05;4.68;;;;;;;;;;5021740;28;20077;-83
2021/03/12 09:08:42;;;;;;;8.23;4.40;;;;;;;;;;5024942;28;20041;-83
2021/03/12 09:11:10;;;;;;;11.57;4.78;;;;;;;;;;5016877;28;20054;-83
2021/03/12 09:13:37;;;;;;;8.18;4.65;;;;;;;;;;5007859;28;20038;-83
2021/03/12 09:16:03;;;;;;;6.35;3.70;;;;;;;;;;5016025;28;20080;-83
2021/03/12 09:18:30;;;;;;;6.75;3.83;;;;;;;;;;5015391;28;20029;-83
2021/03/12 09:21:00;;;;;;;7.05;3.92;;;;;;;;;;5016705;28;20109;-82
2021/03/12 09:23:39;;;;;;;6.53;3.13;;;;;;;;;;5016385;28;20037;-82
2021/03/12 09:26:08;;;;;;;7.93;3.42;;;;;;;;;;5022180;28;20453;-83
2021/03/12 09:28:34;;;;;;;8.40;3.70;;;;;;;;;;5022629;28;20025;-79
2021/03/12 09:31:01;;;;;;;9.68;3.50;;;;;;;;;;5020191;28;20030;-82
2021/03/12 09:33:29;;;;;;;5.22;2.67;;;;;;;;;;5004902;28;20033;-82
2021/03/12 09:35:55;;;;;;;11.25;2.67;;;;;;;;;;5001245;28;20030;-82
2021/03/12 09:38:47;;;;;;;9.82;3.20;;;;;;;;;;5012490;28;20147;-82
2021/03/12 09:41:18;;;;;;;9.30;3.13;;;;;;;;;;5005055;28;20054;-82
2021/03/12 09:43:45;;;;;;;5.65;3.15;;;;;;;;;;5015033;28;20080;-82
2021/03/12 09:46:12;;;;;;;6.78;3.20;;;;;;;;;;4997420;28;20037;-83
2021/03/12 09:48:38;;;;;;;6.50;2.88;;;;;;;;;;5013829;28;20398;-82
2021/03/12 09:51:05;;;;;;;11.95;3.30;;;;;;;;;;4994553;28;20105;-82
2021/03/12 09:53:31;;;;;;;6.18;2.30;;;;;;;;;;4993174;28;20037;-82
2021/03/12 09:55:57;;;;;;;6.20;3.10;;;;;;;;;;4995890;28;20046;-83
2021/03/12 09:58:23;;;;;;;5.63;2.22;;;;;;;;;;4997709;28;20046;-83
2021/03/12 10:00:49;;;;;;;5.85;2.20;;;;;;;;;;4997474;28;20031;-82
2021/03/12 10:03:15;;;;;;;6.45;2.42;;;;;;;;;;4997941;28;20034;-82
2021/03/12 10:05:41;;;;;;;7.15;2.53;;;;;;;;;;5004878;28;20458;-83
2021/03/12 10:08:07;;;;;;;6.78;2.13;;;;;;;;;;4999019;28;20031;-82
2021/03/12 10:10:34;;;;;;;10.55;2.35;;;;;;;;;;5005936;28;20037;-81
2021/03/12 10:13:01;;;;;;;3.60;2.10;;;;;;;;;;5016877;28;20014;-82
2021/03/12 10:15:41;;;;;;;5.70;2.38;;;;;;;;;;4998904;28;20329;-81
2021/03/12 10:18:19;;;;;;;10.70;2.70;;;;;;;;;;5007711;28;20018;-81
2021/03/12 10:20:45;;;;;;;6.60;2.30;;;;;;;;;;5017963;28;20022;-82
2021/03/12 10:23:11;;;;;;;9.10;2.70;;;;;;;;;;5016176;28;20038;-82
2021/03/12 10:25:38;;;;;;;9.13;2.83;;;;;;;;;;5017386;28;20045;-80
2021/03/12 10:28:08;;;;;;;7.32;2.55;;;;;;;;;;5018486;28;20026;-82
2021/03/12 10:30:38;;;;;;;9.65;2.63;;;;;;;;;;5002214;28;20078;-82
2021/03/12 10:33:06;;;;;;;4.95;2.20;;;;;;;;;;5018396;28;20010;-83
2021/03/12 10:35:33;;;;;;;8.88;2.08;;;;;;;;;;5020724;28;20014;-82
2021/03/12 10:38:05;;;;;;;9.60;2.03;;;;;;;;;;5011913;28;20027;-81
2021/03/12 10:40:36;;;;;;;8.25;2.25;;;;;;;;;;5005187;28;20030;-81
2021/03/12 10:43:12;;;;;;;10.40;2.30;;;;;;;;;;5021203;28;20014;-81
2021/03/12 10:45:43;;;;;;;5.65;2.10;;;;;;;;;;5001107;28;20062;-81
2021/03/12 10:48:09;;;;;;;6.95;2.53;;;;;;;;;;4995387;28;20034;-81
2021/03/12 10:50:36;;;;;;;12.43;2.50;;;;;;;;;;5016915;28;20073;-82
2021/03/12 10:53:06;;;;;;;6.15;2.03;;;;;;;;;;5035534;28;20068;-82
2021/03/12 10:55:33;;;;;;;6.68;2.72;;;;;;;;;;5034443;28;20484;-82
2021/03/12 10:58:00;;;;;;;6.25;2.08;;;;;;;;;;5014949;28;20022;-82
2021/03/12 11:00:26;;;;;;;5.13;2.35;;;;;;;;;;5015097;28;20050;-81
2021/03/12 11:02:56;;;;;;;6.28;2.40;;;;;;;;;;5014772;28;20029;-81
2021/03/12 11:05:22;;;;;;;6.63;2.00;;;;;;;;;;5014122;28;20034;-81
2021/03/12 11:07:50;;;;;;;6.13;2.03;;;;;;;;;;5008317;28;20033;-81
2021/03/12 11:10:16;;;;;;;13.10;2.45;;;;;;;;;;5006927;28;20022;-81
2021/03/12 11:12:44;;;;;;;9.70;2.53;;;;;;;;;;5014738;28;20532;-81
2021/03/12 11:15:11;;;;;;;11.60;2.53;;;;;;;;;;5014230;28;20037;-81
2021/03/12 11:17:39;;;;;;;5.50;2.00;;;;;;;;;;4996672;28;20025;-82
2021/03/12 11:20:06;;;;;;;6.15;2.65;;;;;;;;;;5014430;28;20112;-81
2021/03/12 11:22:33;;;;;;;10.38;3.30;;;;;;;;;;4992454;28;20026;-82
2021/03/12 11:25:00;;;;;;;5.18;3.13;;;;;;;;;;5009390;28;20031;-82
2021/03/12 11:27:26;;;;;;;10.02;2.67;;;;;;;;;;5030448;28;20124;-82
2021/03/12 11:29:54;;;;;;;7.97;3.80;;;;;;;;;;4997536;28;20057;-82
2021/03/12 11:32:20;;;;;;;7.55;3.40;;;;;;;;;;5014954;28;20034;-82
2021/03/12 11:34:46;;;;;;;6.78;3.22;;;;;;;;;;5013652;28;20041;-82
2021/03/12 11:37:12;;;;;;;11.70;3.40;;;;;;;;;;4996300;28;20036;-82
2021/03/12 11:39:38;;;;;;;12.25;3.25;;;;;;;;;;5015585;28;20030;-82
2021/03/12 11:42:04;;;;;;;5.30;3.40;;;;;;;;;;4999821;28;20101;-81
2021/03/12 11:44:31;;;;;;;4.32;2.78;;;;;;;;;;5006202;28;20094;-84
2021/03/12 11:46:57;;;;;;;6.93;3.20;;;;;;;;;;5012763;28;20057;-83
2021/03/12 11:49:23;;;;;;;4.80;3.42;;;;;;;;;;5013195;28;20136;-82
2021/03/12 11:51:52;;;;;;;9.43;3.75;;;;;;;;;;5028640;28;20018;-83
2021/03/12 11:54:19;;;;;;;6.80;3.55;;;;;;;;;;5016574;28;20040;-82
2021/03/12 11:56:45;;;;;;;7.65;3.10;;;;;;;;;;5017368;28;20092;-83
2021/03/12 11:59:11;;;;;;;6.70;3.00;;;;;;;;;;5023393;28;20076;-83
2021/03/12 12:01:37;;;;;;;6.78;3.05;;;;;;;;;;5017927;28;20025;-83
2021/03/12 12:04:04;;;;;;;4.78;2.20;;;;;;;;;;5017452;28;20129;-82
2021/03/12 12:06:30;;;;;;;7.90;2.13;;;;;;;;;;5017502;28;20034;-83
2021/03/12 12:08:56;;;;;;;5.47;1.88;;;;;;;;;;5017368;28;20025;-83
2021/03/12 12:11:23;;;;;;;3.63;2.10;;;;;;;;;;5017726;28;20026;-83
2021/03/12 12:13:49;;;;;;;4.22;1.88;;;;;;;;;;5017754;28;20014;-83
2021/03/12 12:16:15;;;;;;;4.75;1.92;;;;;;;;;;5016684;28;20044;-83
2021/03/12 12:18:41;;;;;;;4.78;1.83;;;;;;;;;;5018035;28;20357;-83
2021/03/12 12:21:07;;;;;;;4.28;1.92;;;;;;;;;;4999475;28;20026;-83
2021/03/12 12:23:33;;;;;;;6.55;1.83;;;;;;;;;;5017373;28;20033;-83
2021/03/12 12:25:59;;;;;;;5.40;1.95;;;;;;;;;;5004969;28;20121;-82
2021/03/12 12:28:25;;;;;;;3.13;1.67;;;;;;;;;;5016178;28;20021;-82
2021/03/12 12:30:51;;;;;;;5.38;1.70;;;;;;;;;;5016772;28;20025;-82
2021/03/12 12:33:17;;;;;;;5.45;1.45;;;;;;;;;;5022303;28;20037;-83
2021/03/12 12:35:43;;;;;;;4.55;1.60;;;;;;;;;;5036813;28;20028;-83
2021/03/12 12:38:10;;;;;;;3.42;1.77;;;;;;;;;;5009065;28;20116;-83
2021/03/12 12:40:36;;;;;;;4.35;1.67;;;;;;;;;;5019209;28;20029;-83
2021/03/12 12:43:02;;;;;;;3.90;1.80;;;;;;;;;;5020634;28;20112;-82
2021/03/12 12:45:29;;;;;;;6.72;1.90;;;;;;;;;;5010839;28;20070;-82
2021/03/12 12:47:55;;;;;;;5.80;1.92;;;;;;;;;;5016769;28;20030;-83
2021/03/12 12:50:21;;;;;;;6.90;1.75;;;;;;;;;;5014461;28;20066;-83
2021/03/12 12:52:47;;;;;;;11.40;1.95;;;;;;;;;;5016168;28;20433;-83
2021/03/12 12:55:14;;;;;;;5.18;1.70;;;;;;;;;;5015776;28;20033;-82
2021/03/12 12:57:40;;;;;;;4.70;1.48;;;;;;;;;;5000049;28;20034;-83
2021/03/12 13:00:15;;;;;;;4.28;1.48;;;;;;;;;;5016670;28;20068;-84
2021/03/12 13:02:42;;;;;;;5.45;1.60;;;;;;;;;;5021054;28;20509;-82
2021/03/12 13:05:08;;;;;;;5.35;1.50;;;;;;;;;;5014945;28;20022;-83
2021/03/12 13:07:34;;;;;;;4.20;1.65;;;;;;;;;;5017133;28;20030;-83
2021/03/12 13:10:00;;;;;;;3.30;1.50;;;;;;;;;;5023811;28;20025;-83
2021/03/12 13:12:27;;;;;;;5.35;1.63;;;;;;;;;;5016155;28;20025;-83
2021/03/12 13:14:53;;;;;;;4.20;1.60;;;;;;;;;;5016295;28;20477;-83
2021/03/12 13:17:20;;;;;;;2.67;1.40;;;;;;;;;;5016324;28;20022;-82
2021/03/12 13:19:47;;;;;;;4.55;1.60;;;;;;;;;;5003724;28;20034;-82
2021/03/12 13:22:13;;;;;;;7.55;1.48;;;;;;;;;;5016002;28;20026;-82
2021/03/12 13:24:39;;;;;;;4.20;1.65;;;;;;;;;;5013348;28;20025;-83
2021/03/12 13:27:08;;;;;;;5.05;1.30;;;;;;;;;;5010142;28;20430;-83
2021/03/12 13:29:35;;;;;;;3.00;1.13;;;;;;;;;;5017149;28;20022;-82
2021/03/12 13:32:01;;;;;;;4.65;1.15;;;;;;;;;;5032238;28;20030;-82
2021/03/12 13:34:27;;;;;;;5.22;1.35;;;;;;;;;;5021240;28;20037;-82
2021/03/12 13:36:53;;;;;;;2.58;0.73;;;;;;;;;;5001256;28;20030;-82
2021/03/12 13:39:19;;;;;;;4.50;1.23;;;;;;;;;;5008259;28;20026;-83
2021/03/12 13:41:45;;;;;;;4.28;1.00;;;;;;;;;;4999745;28;20068;-83
2021/03/12 13:44:12;;;;;;;3.60;1.10;;;;;;;;;;5022596;28;20037;-82
2021/03/12 13:46:40;;;;;;;3.80;0.85;;;;;;;;;;5017936;28;20026;-83
2021/03/12 13:49:07;;;;;;;4.25;0.77;;;;;;;;;;4999987;28;20522;-83
2021/03/12 13:51:33;;;;;;;8.10;1.10;;;;;;;;;;5008889;28;20041;-83
2021/03/12 13:53:59;;;;;;;4.07;1.10;;;;;;;;;;5017762;28;20030;-83
2021/03/12 13:56:25;;;;;;;3.42;1.10;;;;;;;;;;5018183;28;20040;-83
2021/03/12 13:58:51;;;;;;;2.85;0.80;;;;;;;;;;5018735;28;20089;-83
2021/03/12 14:01:17;;;;;;;4.15;1.17;;;;;;;;;;5020763;28;20026;-83
2021/03/12 14:03:43;;;;;;;4.35;1.00;;;;;;;;;;4997316;28;20546;-84
2021/03/12 14:06:09;;;;;;;3.70;0.95;;;;;;;;;;5009161;28;20029;-83
2021/03/12 14:08:35;;;;;;;5.35;1.55;;;;;;;;;;5018508;28;20081;-82
2021/03/12 14:11:01;;;;;;;4.53;0.93;;;;;;;;;;5008214;28;20104;-84
2021/03/12 14:13:27;;;;;;;4.85;1.52;;;;;;;;;;5010865;28;20026;-84
2021/03/12 14:15:53;;;;;;;4.97;1.00;;;;;;;;;;5003877;28;20054;-84
2021/03/12 14:18:19;;;;;;;4.97;1.63;;;;;;;;;;4998413;28;20026;-84
2021/03/12 14:20:45;;;;;;;7.32;1.10;;;;;;;;;;5016788;28;20025;-83
2021/03/12 14:23:11;;;;;;;4.78;0.95;;;;;;;;;;5017159;28;20034;-83
2021/03/12 14:25:37;;;;;;;4.93;1.35;;;;;;;;;;5022511;28;20046;-83
2021/03/12 14:28:04;;;;;;;1.75;0.85;;;;;;;;;;4998412;28;20039;-83
2021/03/12 14:30:30;;;;;;;2.38;1.13;;;;;;;;;;5007751;28;20034;-84
2021/03/12 14:32:56;;;;;;;4.80;1.10;;;;;;;;;;5010332;28;20018;-83
2021/03/12 14:35:22;;;;;;;3.47;1.05;;;;;;;;;;5007845;28;20085;-83
2021/03/12 14:37:48;;;;;;;5.40;1.20;;;;;;;;;;4996801;28;20058;-84
2021/03/12 14:40:15;;;;;;;6.70;1.30;;;;;;;;;;5016023;28;20080;-82
2021/03/12 14:42:44;;;;;;;9.82;1.35;;;;;;;;;;5015644;28;20512;-83
2021/03/12 14:45:11;;;;;;;6.20;1.40;;;;;;;;;;4996913;28;20673;-83